Arden, NC

3:03 PM EST on February 22, 2017 (GMT -0500)
Asheville Regional | | Change Station

Elev 2165 ft 35.44 °N, 82.54 °W | Updated 9 minutes ago

Overcast
Overcast
54 °F
Feels Like 54 °F
N
5
Wind Variable Wind from South

Today
High -- | Low -- °F
--% Chance of Precip.
Yesterday
High -- | Low -- °F
Precip. -- in
Pressure 29.93 in
Visibility 1.0 miles
Clouds Overcast 400 ft
Dew Point 51 °F
Humidity 90%
Rainfall 0.18 in
Snow Depth Not available.
7:08 AM 6:19 PM
Waning Crescent, 15% visible
METAR KAVL 221954Z 17004KT 1SM OVC004 12/11 A2995 RMK AO2 SFC VIS 8 SLP135 T01220106
Pressure 29.93 in
Visibility 1.0 miles
Clouds Overcast 400 ft
Dew Point 51 °F
Humidity 90%
Rainfall 0.18 in
Snow Depth Not available.
7:08 AM 6:19 PM
Waning Crescent, 15% visible
METAR KAVL 221954Z 17004KT 1SM OVC004 12/11 A2995 RMK AO2 SFC VIS 8 SLP135 T01220106

Get Your Daily Forecast Email!

Thanks for signing up!

Be on the lookout for a verification email in your inbox.

You'll start receiving the daily forecast at 8 AM.

×

10-Day Weather Forecast

Almanac

Astronomy

Feb. 22, 2017 Rise Set
Actual Time
Civil Twilight
Nautical Twilight
Astronomical Twilight
Moon
Length of Visible Light
Length of Day
Tomorrow will be .
, % of the Moon is Illuminated

Today's Extremes

State Highs State Lows

Community

WunderPhotos

Upload Photos

1,962,540 photos uploaded!

WunderBlog® & News

Nearby

Air Quality

  Air Quality AQ Index Pollutant
Not available.

Snow Depth

Station Depth Elevation

Earthquake Activity

City Distance Mag. Time & Date
Minimum magnitude displayed is 2.5.

Coastal Water Temperatures

Place Temperature

Stations

Nearby Weather Stations

Station Location Temp. Windchill Dew Point Humidity Wind Precip. Elev Updated Type
                   

Watches & Warnings

There are currently no watches in effect.